createdAt,value
2024-01-26T00:00:07.020Z,98570.22
2024-01-26T00:02:35.289Z,98569.41
2024-01-26T00:05:05.561Z,98561.78
2024-01-26T00:07:33.969Z,98568.66
2024-01-26T00:10:02.850Z,98565.31
2024-01-26T00:12:31.794Z,98561.84
2024-01-26T00:15:00.582Z,98564.34
2024-01-26T00:17:28.687Z,98565.00
2024-01-26T00:19:57.200Z,98559.72
2024-01-26T00:22:26.655Z,98559.59
2024-01-26T00:24:54.869Z,98556.88
2024-01-26T00:27:23.063Z,98553.31
2024-01-26T00:29:51.254Z,98559.91
2024-01-26T00:32:19.355Z,98559.72
2024-01-26T00:34:47.538Z,98554.50
2024-01-26T00:37:15.880Z,98551.06
2024-01-26T00:39:45.424Z,98552.75
2024-01-26T00:42:13.583Z,98549.53
2024-01-26T00:44:41.683Z,98549.53
2024-01-26T00:47:09.826Z,98546.19
2024-01-26T00:49:45.464Z,98544.56
2024-01-26T00:52:18.534Z,98555.56
2024-01-26T00:54:48.792Z,98546.13
2024-01-26T00:57:17.173Z,98539.34
2024-01-26T00:59:45.503Z,98549.53
2024-01-26T01:02:13.818Z,98552.13
2024-01-26T01:04:42.280Z,98543.66
2024-01-26T01:07:10.422Z,98542.06
2024-01-26T01:09:41.298Z,98558.28
2024-01-26T01:12:10.908Z,98554.03
2024-01-26T01:14:41.522Z,98552.31
2024-01-26T01:17:10.512Z,98553.91
2024-01-26T01:19:38.701Z,98548.81
2024-01-26T01:22:07.023Z,98539.47
2024-01-26T01:24:35.171Z,98537.81
2024-01-26T01:27:03.424Z,98536.00
2024-01-26T01:29:32.940Z,98541.03
2024-01-26T01:32:01.064Z,98544.44
2024-01-26T01:34:29.256Z,98535.06
2024-01-26T01:36:57.413Z,98535.06
2024-01-26T01:39:25.531Z,98526.53
2024-01-26T01:41:53.829Z,98529.91
2024-01-26T01:44:23.252Z,98527.34
2024-01-26T01:46:53.506Z,98535.78
2024-01-26T01:49:21.665Z,98529.72
2024-01-26T01:51:54.452Z,98529.59
2024-01-26T01:54:23.651Z,98527.09
2024-01-26T01:56:54.511Z,98526.22
2024-01-26T01:59:23.688Z,98530.44
2024-01-26T02:01:53.201Z,98525.34
2024-01-26T02:04:21.458Z,98520.25
2024-01-26T02:06:56.147Z,98531.19
2024-01-26T02:09:25.213Z,98525.34
2024-01-26T02:11:54.081Z,98525.28
2024-01-26T02:14:22.487Z,98532.84
2024-01-26T02:16:59.713Z,98526.03
2024-01-26T02:19:30.682Z,98525.97
2024-01-26T02:21:58.858Z,98526.88
2024-01-26T02:24:28.381Z,98526.75
2024-01-26T02:26:56.507Z,98520.63
2024-01-26T02:29:24.623Z,98530.75
2024-01-26T02:31:52.750Z,98525.59
2024-01-26T02:34:21.101Z,98523.03
2024-01-26T02:36:49.326Z,98526.38
2024-01-26T02:39:17.440Z,98521.28
2024-01-26T02:41:46.938Z,98511.91
2024-01-26T02:44:15.065Z,98515.16
2024-01-26T02:46:43.739Z,98513.44
2024-01-26T02:49:11.991Z,98523.50
2024-01-26T02:51:40.329Z,98518.41
2024-01-26T02:54:07.617Z,98521.69
2024-01-26T02:56:35.945Z,98512.22
2024-01-26T02:59:05.471Z,98513.75
2024-01-26T03:01:33.576Z,98508.66
2024-01-26T03:04:01.682Z,98511.97
2024-01-26T03:06:29.995Z,98513.75
2024-01-26T03:08:58.174Z,98516.38
2024-01-26T03:11:38.933Z,98507.75
2024-01-26T03:14:08.857Z,98511.81
2024-01-26T03:16:40.477Z,98508.41
2024-01-26T03:19:09.711Z,98511.81
2024-01-26T03:21:44.485Z,98517.06
2024-01-26T03:24:13.765Z,98517.00
2024-01-26T03:26:42.112Z,98514.25
2024-01-26T03:29:11.734Z,98510.81
2024-01-26T03:31:39.866Z,98515.91
2024-01-26T03:34:08.148Z,98513.09
2024-01-26T03:36:36.360Z,98512.16
2024-01-26T03:39:05.504Z,98512.16
2024-01-26T03:41:33.762Z,98518.88
2024-01-26T03:44:01.988Z,98517.09
2024-01-26T03:46:31.511Z,98512.75
2024-01-26T03:48:59.802Z,98517.84
2024-01-26T03:51:28.153Z,98515.38
2024-01-26T03:53:56.289Z,98519.38
2024-01-26T03:56:24.444Z,98517.66
2024-01-26T03:58:54.087Z,98516.72
2024-01-26T04:01:22.462Z,98513.28
2024-01-26T04:03:52.100Z,98519.13
2024-01-26T04:06:20.497Z,98511.47
2024-01-26T04:08:48.727Z,98517.41
2024-01-26T04:11:16.899Z,98525.81
2024-01-26T04:13:45.026Z,98527.47
2024-01-26T04:16:13.149Z,98519.75
2024-01-26T04:18:42.582Z,98520.50
2024-01-26T04:21:12.958Z,98517.16
2024-01-26T04:23:41.837Z,98511.13
2024-01-26T04:26:09.984Z,98520.50
2024-01-26T04:28:38.509Z,98525.53
2024-01-26T04:31:07.093Z,98524.78
2024-01-26T04:33:35.339Z,98517.91
2024-01-26T04:36:03.589Z,98521.19
2024-01-26T04:38:33.218Z,98514.47
2024-01-26T04:41:01.336Z,98512.66
2024-01-26T04:43:29.420Z,98509.97
2024-01-26T04:45:57.537Z,98510.75
2024-01-26T04:48:25.844Z,98503.84
2024-01-26T04:50:54.344Z,98510.75
2024-01-26T04:53:22.496Z,98514.06
2024-01-26T04:55:51.940Z,98519.16
2024-01-26T04:58:20.043Z,98510.53
2024-01-26T05:00:49.487Z,98520.75
2024-01-26T05:03:17.815Z,98515.66
2024-01-26T05:05:46.079Z,98513.91
2024-01-26T05:08:14.230Z,98516.47
2024-01-26T05:10:42.330Z,98513.16
2024-01-26T05:13:12.629Z,98510.63
2024-01-26T05:15:40.761Z,98513.03
2024-01-26T05:18:09.777Z,98509.56
2024-01-26T05:20:38.102Z,98501.91
2024-01-26T05:23:06.572Z,98511.94
2024-01-26T05:25:34.695Z,98507.63
2024-01-26T05:28:02.810Z,98504.25
2024-01-26T05:30:32.730Z,98501.56
2024-01-26T05:33:02.413Z,98501.41
2024-01-26T05:35:30.811Z,98499.59
2024-01-26T05:37:59.027Z,98502.00
2024-01-26T05:40:27.463Z,98507.03
2024-01-26T05:42:55.614Z,98499.25
2024-01-26T05:45:23.796Z,98503.47
2024-01-26T05:47:53.523Z,98488.91
2024-01-26T05:50:22.646Z,98499.97
2024-01-26T05:52:50.840Z,98499.00
2024-01-26T05:55:18.963Z,98503.25
2024-01-26T05:57:47.265Z,98497.34
2024-01-26T06:00:18.484Z,98490.44
2024-01-26T06:02:47.884Z,98493.81
2024-01-26T06:05:17.491Z,98498.00
2024-01-26T06:07:45.608Z,98488.56
2024-01-26T06:10:13.833Z,98493.41
2024-01-26T06:12:42.109Z,98490.84
2024-01-26T06:15:11.888Z,98492.28
2024-01-26T06:17:40.954Z,98491.44
2024-01-26T06:20:10.076Z,98494.00
2024-01-26T06:22:39.570Z,98495.00
2024-01-26T06:25:08.076Z,98487.25
2024-01-26T06:27:36.158Z,98483.13
2024-01-26T06:30:04.884Z,98475.38
2024-01-26T06:32:33.168Z,98472.69
2024-01-26T06:35:01.401Z,98472.75
2024-01-26T06:37:29.578Z,98482.31
2024-01-26T06:39:59.023Z,98475.53
2024-01-26T06:42:27.416Z,98471.25
2024-01-26T06:44:56.027Z,98464.47
2024-01-26T06:47:24.389Z,98470.28
2024-01-26T06:49:52.649Z,98473.56
2024-01-26T06:52:20.833Z,98479.38
2024-01-26T06:54:48.962Z,98468.94
2024-01-26T06:57:18.478Z,98470.31
2024-01-26T06:59:46.645Z,98470.19
2024-01-26T07:02:14.842Z,98462.38
2024-01-26T07:04:44.251Z,98462.22
2024-01-26T07:07:12.486Z,98462.16
2024-01-26T07:09:40.623Z,98466.28
2024-01-26T07:12:09.768Z,98464.53
2024-01-26T07:14:39.337Z,98469.66
2024-01-26T07:17:07.465Z,98476.50
2024-01-26T07:19:35.638Z,98479.19
2024-01-26T07:22:03.825Z,98481.84
2024-01-26T07:24:31.934Z,98484.47
2024-01-26T07:27:00.132Z,98491.34
2024-01-26T07:29:28.627Z,98497.34
2024-01-26T07:31:58.088Z,98484.72
2024-01-26T07:34:29.425Z,98495.78
2024-01-26T07:36:59.337Z,98479.47
2024-01-26T07:39:27.746Z,98482.78
2024-01-26T07:41:56.011Z,98479.28
2024-01-26T07:44:24.136Z,98477.53
2024-01-26T07:46:52.345Z,98468.06
2024-01-26T07:49:22.130Z,98462.06
2024-01-26T07:51:50.432Z,98457.50
2024-01-26T07:54:18.591Z,98455.47
2024-01-26T07:56:46.740Z,98441.34
2024-01-26T07:59:14.893Z,98439.84
2024-01-26T08:01:43.213Z,98433.38
2024-01-26T08:04:11.446Z,98433.69
2024-01-26T08:06:41.553Z,98438.91
2024-01-26T08:09:11.792Z,98438.13
2024-01-26T08:11:40.494Z,98428.66
2024-01-26T08:14:08.671Z,98432.16
2024-01-26T08:16:38.201Z,98425.38
2024-01-26T08:19:06.620Z,98418.63
2024-01-26T08:21:34.992Z,98408.38
2024-01-26T08:24:04.645Z,98410.25
2024-01-26T08:26:32.848Z,98404.28
2024-01-26T08:29:01.570Z,98397.81
2024-01-26T08:31:30.588Z,98398.69
2024-01-26T08:33:58.873Z,98397.84
2024-01-26T08:36:27.219Z,98390.59
2024-01-26T08:38:56.196Z,98384.38
2024-01-26T08:41:25.811Z,98387.66
2024-01-26T08:43:53.938Z,98391.72
2024-01-26T08:46:22.332Z,98383.66
2024-01-26T08:48:50.651Z,98396.88
2024-01-26T08:51:18.905Z,98389.38
2024-01-26T08:53:47.108Z,98382.13
2024-01-26T08:56:16.107Z,98386.22
2024-01-26T08:58:45.605Z,98385.91
2024-01-26T09:01:13.735Z,98394.19
2024-01-26T09:03:41.895Z,98386.31
2024-01-26T09:06:10.496Z,98394.00
2024-01-26T09:08:38.706Z,98397.38
2024-01-26T09:11:06.847Z,98383.47
2024-01-26T09:13:35.008Z,98382.19
2024-01-26T09:16:05.141Z,98376.25
2024-01-26T09:18:43.001Z,98381.19
2024-01-26T09:21:12.881Z,98370.63
2024-01-26T09:23:41.390Z,98359.47
2024-01-26T09:26:09.512Z,98369.72
2024-01-26T09:28:37.657Z,98370.44
2024-01-26T09:31:07.458Z,98361.94
2024-01-26T09:33:35.859Z,98358.56
2024-01-26T09:36:04.212Z,98358.56
2024-01-26T09:38:32.490Z,98354.53
2024-01-26T09:41:00.905Z,98356.63
2024-01-26T09:43:29.100Z,98355.81
2024-01-26T09:45:57.762Z,98343.81
2024-01-26T09:48:28.100Z,98338.56
2024-01-26T09:50:56.652Z,98337.56
2024-01-26T09:53:26.429Z,98321.69
2024-01-26T09:55:55.029Z,98312.50
2024-01-26T09:58:23.800Z,98296.16
2024-01-26T10:00:56.617Z,98303.50
2024-01-26T10:03:31.564Z,98305.53
2024-01-26T10:06:01.984Z,98294.97
2024-01-26T10:08:39.867Z,98301.44
2024-01-26T10:11:08.299Z,98289.53
2024-01-26T10:13:36.512Z,98295.31
2024-01-26T10:16:10.050Z,98288.28
2024-01-26T10:18:45.226Z,98286.00
2024-01-26T10:21:14.921Z,98276.16
2024-01-26T10:23:44.111Z,98284.41
2024-01-26T10:26:13.006Z,98268.97
2024-01-26T10:28:41.357Z,98267.81
2024-01-26T10:31:09.577Z,98277.53
2024-01-26T10:33:42.154Z,98272.69
2024-01-26T10:36:16.166Z,98278.63
2024-01-26T10:38:49.989Z,98274.44
2024-01-26T10:41:22.867Z,98277.00
2024-01-26T10:43:56.300Z,98269.53
2024-01-26T10:46:26.791Z,98271.31
2024-01-26T10:48:56.812Z,98267.13
2024-01-26T10:51:27.632Z,98265.44
2024-01-26T10:53:59.234Z,98265.28
2024-01-26T10:56:27.613Z,98256.03
2024-01-26T10:58:55.953Z,98249.34
2024-01-26T11:01:25.641Z,98238.13
2024-01-26T11:03:57.115Z,98241.44
2024-01-26T11:06:29.288Z,98233.22
2024-01-26T11:09:07.790Z,98241.03
2024-01-26T11:11:39.393Z,98242.03
2024-01-26T11:14:08.248Z,98237.13
2024-01-26T11:16:37.678Z,98235.66
2024-01-26T11:19:06.153Z,98234.31
2024-01-26T11:21:45.931Z,98224.25
2024-01-26T11:24:19.563Z,98224.34
2024-01-26T11:26:58.361Z,98221.94
2024-01-26T11:29:34.141Z,98218.78
2024-01-26T11:32:03.273Z,98226.53
2024-01-26T11:34:31.414Z,98222.34
2024-01-26T11:37:12.734Z,98223.28
2024-01-26T11:39:41.369Z,98205.28
2024-01-26T11:42:12.186Z,98204.59
2024-01-26T11:44:43.384Z,98200.47
2024-01-26T11:47:12.587Z,98197.09
2024-01-26T11:49:41.981Z,98187.84
2024-01-26T11:52:12.592Z,98187.84
2024-01-26T11:54:44.971Z,98180.13
2024-01-26T11:57:13.410Z,98172.44
2024-01-26T11:59:42.277Z,98163.19
2024-01-26T12:02:10.957Z,98159.16
2024-01-26T12:04:39.146Z,98151.75
2024-01-26T12:07:08.303Z,98147.69
2024-01-26T12:09:37.962Z,98146.94
2024-01-26T12:12:09.250Z,98146.22
2024-01-26T12:14:37.808Z,98142.91
2024-01-26T12:17:05.391Z,98148.16
2024-01-26T12:19:34.069Z,98140.56
2024-01-26T12:22:02.231Z,98144.06
2024-01-26T12:24:30.473Z,98140.66
2024-01-26T12:27:00.022Z,98139.84
2024-01-26T12:29:28.663Z,98136.56
2024-01-26T12:32:04.897Z,98125.47
2024-01-26T12:34:35.094Z,98130.59
2024-01-26T12:37:03.995Z,98129.69
2024-01-26T12:39:32.200Z,98127.94
2024-01-26T12:42:01.800Z,98126.91
2024-01-26T12:44:30.913Z,98118.31
2024-01-26T12:47:00.332Z,98114.78
2024-01-26T12:49:29.362Z,98120.78
2024-01-26T12:51:59.325Z,98114.59
2024-01-26T12:54:27.417Z,98111.91
2024-01-26T12:56:55.568Z,98104.97
2024-01-26T12:59:25.144Z,98107.31
2024-01-26T13:01:53.391Z,98106.41
2024-01-26T13:04:21.930Z,98111.53
2024-01-26T13:06:50.331Z,98106.41
2024-01-26T13:09:19.086Z,98105.56
2024-01-26T13:11:47.280Z,98102.78
2024-01-26T13:14:16.592Z,98098.50
2024-01-26T13:16:46.048Z,98104.53
2024-01-26T13:19:14.271Z,98099.63
2024-01-26T13:21:42.865Z,98097.88
2024-01-26T13:24:11.084Z,98089.34
2024-01-26T13:26:40.817Z,98099.63
2024-01-26T13:29:08.928Z,98092.72
2024-01-26T13:31:37.502Z,98100.13
2024-01-26T13:34:07.172Z,98095.31
2024-01-26T13:36:35.354Z,98089.16
2024-01-26T13:39:05.606Z,98095.91
2024-01-26T13:41:33.759Z,98093.25
2024-01-26T13:44:02.545Z,98099.94
2024-01-26T13:46:30.804Z,98089.44
2024-01-26T13:48:59.318Z,98089.56
2024-01-26T13:51:29.064Z,98085.03
2024-01-26T13:53:57.247Z,98083.13
2024-01-26T13:56:25.452Z,98087.34
2024-01-26T13:58:53.608Z,98088.75
2024-01-26T14:01:21.794Z,98083.59
2024-01-26T14:03:52.748Z,98081.25
2024-01-26T14:06:21.679Z,98086.38
2024-01-26T14:08:51.279Z,98078.78
2024-01-26T14:11:20.883Z,98087.44
2024-01-26T14:13:49.168Z,98081.16
2024-01-26T14:16:17.801Z,98086.38
2024-01-26T14:18:46.164Z,98080.44
2024-01-26T14:21:14.410Z,98085.69
2024-01-26T14:23:42.758Z,98084.75
2024-01-26T14:26:12.955Z,98085.56
2024-01-26T14:28:41.120Z,98073.75
2024-01-26T14:31:09.467Z,98079.06
2024-01-26T14:33:38.017Z,98085.16
2024-01-26T14:36:07.186Z,98084.41
2024-01-26T14:38:35.297Z,98082.59
2024-01-26T14:41:03.439Z,98084.19
2024-01-26T14:43:34.336Z,98074.03
2024-01-26T14:46:05.503Z,98087.63
2024-01-26T14:48:34.411Z,98078.25
2024-01-26T14:51:02.802Z,98073.03
2024-01-26T14:53:30.929Z,98075.59
2024-01-26T14:55:59.062Z,98080.72
2024-01-26T14:58:30.083Z,98073.94
2024-01-26T15:00:59.600Z,98078.25
2024-01-26T15:03:29.734Z,98078.38
2024-01-26T15:05:58.015Z,98078.38
2024-01-26T15:08:26.173Z,98084.41
2024-01-26T15:10:57.756Z,98099.13
2024-01-26T15:13:26.609Z,98095.13
2024-01-26T15:15:55.182Z,98091.91
2024-01-26T15:18:24.811Z,98104.03
2024-01-26T15:20:53.291Z,98116.06
2024-01-26T15:23:21.848Z,98103.13
2024-01-26T15:25:50.055Z,98098.16
2024-01-26T15:28:20.332Z,98106.81
2024-01-26T15:30:48.466Z,98099.00
2024-01-26T15:33:16.748Z,98108.25
2024-01-26T15:35:47.303Z,98116.88
2024-01-26T15:38:15.450Z,98100.66
2024-01-26T15:40:44.159Z,98110.72
2024-01-26T15:43:13.082Z,98120.16
2024-01-26T15:45:41.192Z,98106.59
2024-01-26T15:48:09.765Z,98119.56
2024-01-26T15:50:38.064Z,98122.00
2024-01-26T15:53:07.653Z,98130.72
2024-01-26T15:55:35.762Z,98133.84
2024-01-26T15:58:03.932Z,98139.06
2024-01-26T16:00:32.184Z,98149.16
2024-01-26T16:03:00.542Z,98150.97
2024-01-26T16:05:28.771Z,98146.78
2024-01-26T16:07:56.917Z,98175.13
2024-01-26T16:10:27.436Z,98169.88
2024-01-26T16:12:55.555Z,98210.59
2024-01-26T16:15:23.780Z,98228.56
2024-01-26T16:17:52.049Z,98234.63
2024-01-26T16:20:20.774Z,98238.56
2024-01-26T16:22:48.866Z,98259.13
2024-01-26T16:25:17.216Z,98271.19
2024-01-26T16:27:46.708Z,98280.78
2024-01-26T16:30:15.044Z,98288.56
2024-01-26T16:32:43.649Z,98290.75
2024-01-26T16:35:11.941Z,98324.81
2024-01-26T16:37:40.054Z,98307.56
2024-01-26T16:40:10.535Z,98310.41
2024-01-26T16:42:38.836Z,98320.38
2024-01-26T16:45:09.551Z,98336.78
2024-01-26T16:47:37.725Z,98350.34
2024-01-26T16:50:07.283Z,98355.28
2024-01-26T16:52:35.545Z,98365.63
2024-01-26T16:55:03.665Z,98369.72
2024-01-26T16:57:32.061Z,98382.47
2024-01-26T17:00:00.357Z,98389.13
2024-01-26T17:02:30.007Z,98385.78
2024-01-26T17:04:58.167Z,98402.75
2024-01-26T17:07:26.262Z,98413.34
2024-01-26T17:09:54.435Z,98425.19
2024-01-26T17:12:23.914Z,98441.31
2024-01-26T17:14:53.879Z,98446.13
2024-01-26T17:17:23.273Z,98461.13
2024-01-26T17:19:53.526Z,98475.16
2024-01-26T17:22:22.622Z,98470.59
2024-01-26T17:24:50.785Z,98470.84
2024-01-26T17:27:19.660Z,98478.84
2024-01-26T17:29:48.273Z,98496.47
2024-01-26T17:32:16.551Z,98502.78
2024-01-26T17:34:44.674Z,98510.84
2024-01-26T17:37:14.375Z,98515.59
2024-01-26T17:39:51.962Z,98521.91
2024-01-26T17:42:27.931Z,98522.97
2024-01-26T17:44:56.249Z,98528.38
2024-01-26T17:47:25.442Z,98536.19
2024-01-26T17:49:53.858Z,98541.59
2024-01-26T17:52:24.494Z,98548.38
2024-01-26T17:54:52.641Z,98543.56
2024-01-26T17:57:20.822Z,98575.25
2024-01-26T17:59:49.000Z,98573.00
2024-01-26T18:02:17.204Z,98579.22
2024-01-26T18:04:45.339Z,98582.88
2024-01-26T18:07:13.451Z,98594.06
2024-01-26T18:09:42.915Z,98604.50
2024-01-26T18:12:11.141Z,98609.75
2024-01-26T18:14:39.360Z,98616.59
2024-01-26T18:17:07.951Z,98620.19
2024-01-26T18:19:36.497Z,98631.34
2024-01-26T18:22:04.932Z,98632.47
2024-01-26T18:24:33.056Z,98643.78
2024-01-26T18:27:03.802Z,98651.59
2024-01-26T18:29:31.980Z,98651.81
2024-01-26T18:32:00.085Z,98658.59
2024-01-26T18:34:28.286Z,98663.78
2024-01-26T18:36:56.449Z,98678.28
2024-01-26T18:39:25.110Z,98674.91
2024-01-26T18:41:53.323Z,98691.19
2024-01-26T18:44:23.231Z,98684.41
2024-01-26T18:46:51.391Z,98697.38
2024-01-26T18:49:19.688Z,98706.94
2024-01-26T18:51:47.905Z,98708.88
2024-01-26T18:54:16.075Z,98714.16
2024-01-26T18:56:44.300Z,98727.06
2024-01-26T18:59:12.847Z,98746.69
2024-01-26T19:01:42.824Z,98759.53
2024-01-26T19:04:11.181Z,98755.41
2024-01-26T19:06:42.124Z,98763.25
2024-01-26T19:09:11.297Z,98772.72
2024-01-26T19:11:42.802Z,98782.88
2024-01-26T19:14:11.152Z,98793.25
2024-01-26T19:16:39.987Z,98799.25
2024-01-26T19:19:10.027Z,98795.91
2024-01-26T19:21:38.350Z,98808.63
2024-01-26T19:24:07.264Z,98818.19
2024-01-26T19:26:35.467Z,98825.97
2024-01-26T19:29:04.131Z,98833.75
2024-01-26T19:31:32.355Z,98837.28
2024-01-26T19:34:00.579Z,98840.75
2024-01-26T19:36:31.779Z,98848.53
2024-01-26T19:38:59.987Z,98860.50
2024-01-26T19:41:28.242Z,98869.06
2024-01-26T19:43:56.341Z,98872.38
2024-01-26T19:46:24.480Z,98880.78
2024-01-26T19:48:52.701Z,98880.69
2024-01-26T19:51:20.873Z,98881.50
2024-01-26T19:53:50.390Z,98862.78
2024-01-26T19:56:18.492Z,98872.00
2024-01-26T19:58:47.606Z,98883.13
2024-01-26T20:01:17.575Z,98884.75
2024-01-26T20:03:46.288Z,98890.66
2024-01-26T20:06:15.226Z,98899.88
2024-01-26T20:08:44.539Z,98897.19
2024-01-26T20:11:16.028Z,98899.66
2024-01-26T20:13:44.642Z,98905.59
2024-01-26T20:16:13.708Z,98903.94
2024-01-26T20:18:42.566Z,98915.78
2024-01-26T20:21:13.684Z,98908.13
2024-01-26T20:23:42.859Z,98919.09
2024-01-26T20:26:13.498Z,98914.84
2024-01-26T20:28:44.004Z,98906.34
2024-01-26T20:31:14.527Z,98909.56
2024-01-26T20:33:45.678Z,98903.72
2024-01-26T20:36:15.504Z,98907.25
2024-01-26T20:38:45.093Z,98914.06
2024-01-26T20:41:14.591Z,98921.72
2024-01-26T20:43:42.754Z,98927.59
2024-01-26T20:46:11.228Z,98937.81
2024-01-26T20:48:40.369Z,98948.78
2024-01-26T20:51:08.733Z,98958.22
2024-01-26T20:53:37.193Z,98955.59
2024-01-26T20:56:06.096Z,98955.66
2024-01-26T20:58:35.601Z,98957.31
2024-01-26T21:01:03.856Z,98961.53
2024-01-26T21:03:32.330Z,98958.09
2024-01-26T21:06:00.650Z,98968.38
2024-01-26T21:08:28.877Z,98981.13
2024-01-26T21:10:56.997Z,98982.00
2024-01-26T21:13:25.160Z,98984.59
2024-01-26T21:15:54.622Z,98976.19
2024-01-26T21:18:22.961Z,98981.28
2024-01-26T21:20:51.241Z,98982.97
2024-01-26T21:23:19.491Z,98988.13
2024-01-26T21:25:47.595Z,98994.97
2024-01-26T21:28:16.338Z,98993.28
2024-01-26T21:30:44.485Z,99001.72
2024-01-26T21:33:14.081Z,98993.41
2024-01-26T21:35:42.502Z,98993.41
2024-01-26T21:38:10.686Z,98992.53
2024-01-26T21:40:39.241Z,98992.53
2024-01-26T21:43:07.503Z,98990.78
2024-01-26T21:45:35.851Z,98990.84
2024-01-26T21:48:07.261Z,99002.78
2024-01-26T21:50:37.086Z,98987.47
2024-01-26T21:53:05.754Z,98987.47
2024-01-26T21:55:33.935Z,98990.91
2024-01-26T21:58:02.089Z,99003.72
2024-01-26T22:00:30.297Z,99009.75
2024-01-26T22:02:58.487Z,99024.34
2024-01-26T22:05:26.633Z,99022.63
2024-01-26T22:07:56.117Z,99020.06
2024-01-26T22:10:24.222Z,99011.72
2024-01-26T22:12:52.395Z,99022.78
2024-01-26T22:15:21.000Z,99018.50
2024-01-26T22:17:49.465Z,99023.72
2024-01-26T22:20:18.475Z,99037.38
2024-01-26T22:22:46.605Z,99033.22
2024-01-26T22:25:16.340Z,99045.03
2024-01-26T22:27:44.469Z,99054.44
2024-01-26T22:30:14.304Z,99058.72
2024-01-26T22:32:42.496Z,99075.63
2024-01-26T22:35:10.879Z,99059.44
2024-01-26T22:37:39.695Z,99068.75
2024-01-26T22:40:09.537Z,99068.75
2024-01-26T22:42:39.016Z,99078.09
2024-01-26T22:45:08.565Z,99071.19
2024-01-26T22:47:36.725Z,99079.66
2024-01-26T22:50:05.642Z,99071.88
2024-01-26T22:52:33.754Z,99074.44
2024-01-26T22:55:01.854Z,99068.59
2024-01-26T22:57:32.206Z,99062.66
2024-01-26T23:00:01.793Z,99070.97
2024-01-26T23:02:30.040Z,99077.09
2024-01-26T23:04:58.146Z,99073.69
2024-01-26T23:07:26.284Z,99077.09
2024-01-26T23:09:54.413Z,99080.56
2024-01-26T23:12:22.693Z,99077.16
2024-01-26T23:14:50.856Z,99070.38
2024-01-26T23:17:20.342Z,99072.25
2024-01-26T23:19:48.608Z,99074.03
2024-01-26T23:22:16.782Z,99080.06
2024-01-26T23:24:44.954Z,99085.25
2024-01-26T23:27:13.268Z,99085.25
2024-01-26T23:29:41.384Z,99088.78
2024-01-26T23:32:09.510Z,99080.38
2024-01-26T23:34:39.183Z,99081.34
2024-01-26T23:37:07.390Z,99071.31
2024-01-26T23:39:35.555Z,99069.84
2024-01-26T23:42:03.751Z,99072.66
2024-01-26T23:44:31.912Z,99066.97
2024-01-26T23:47:00.416Z,99071.41
2024-01-26T23:49:28.617Z,99070.75
2024-01-26T23:51:58.250Z,99071.72
2024-01-26T23:54:26.497Z,99081.22
2024-01-26T23:56:54.824Z,99080.50
2024-01-26T23:59:23.363Z,99079.72
